sensor_id;sensor_type;location;lat;lon;timestamp;temperature;humidity
16116;DHT22;8162;47.104;15.432;2022-11-11T00:02:21;4.10;94.80
16116;DHT22;8162;47.104;15.432;2022-11-11T00:04:46;4.10;94.80
16116;DHT22;8162;47.104;15.432;2022-11-11T00:07:12;4.10;94.80
16116;DHT22;8162;47.104;15.432;2022-11-11T00:09:38;4.10;94.80
16116;DHT22;8162;47.104;15.432;2022-11-11T00:12:04;4.20;94.80
16116;DHT22;8162;47.104;15.432;2022-11-11T00:14:30;4.10;94.80
16116;DHT22;8162;47.104;15.432;2022-11-11T00:16:55;4.10;94.80
16116;DHT22;8162;47.104;15.432;2022-11-11T00:19:39;4.10;94.80
16116;DHT22;8162;47.104;15.432;2022-11-11T00:22:23;4.10;94.70
16116;DHT22;8162;47.104;15.432;2022-11-11T00:25:10;4.10;94.70
16116;DHT22;8162;47.104;15.432;2022-11-11T00:27:38;4.00;94.70
16116;DHT22;8162;47.104;15.432;2022-11-11T00:30:04;4.00;94.70
16116;DHT22;8162;47.104;15.432;2022-11-11T00:32:31;4.00;94.70
16116;DHT22;8162;47.104;15.432;2022-11-11T00:34:58;4.00;94.70
16116;DHT22;8162;47.104;15.432;2022-11-11T00:37:44;3.90;94.60
16116;DHT22;8162;47.104;15.432;2022-11-11T00:40:11;3.90;94.60
16116;DHT22;8162;47.104;15.432;2022-11-11T00:42:37;3.90;94.60
16116;DHT22;8162;47.104;15.432;2022-11-11T00:45:04;3.90;94.60
16116;DHT22;8162;47.104;15.432;2022-11-11T00:47:30;3.90;94.60
16116;DHT22;8162;47.104;15.432;2022-11-11T00:50:17;3.90;94.70
16116;DHT22;8162;47.104;15.432;2022-11-11T00:53:19;3.90;94.70
16116;DHT22;8162;47.104;15.432;2022-11-11T00:55:45;3.90;94.70
16116;DHT22;8162;47.104;15.432;2022-11-11T00:58:11;3.80;94.70
16116;DHT22;8162;47.104;15.432;2022-11-11T01:00:37;3.80;94.70
16116;DHT22;8162;47.104;15.432;2022-11-11T01:03:03;3.80;94.70
16116;DHT22;8162;47.104;15.432;2022-11-11T01:05:28;3.80;94.70
16116;DHT22;8162;47.104;15.432;2022-11-11T01:07:54;3.80;94.70
16116;DHT22;8162;47.104;15.432;2022-11-11T01:10:21;3.80;94.70
16116;DHT22;8162;47.104;15.432;2022-11-11T01:13:26;3.80;94.70
16116;DHT22;8162;47.104;15.432;2022-11-11T01:15:59;3.80;94.70
16116;DHT22;8162;47.104;15.432;2022-11-11T01:18:25;3.80;94.70
16116;DHT22;8162;47.104;15.432;2022-11-11T01:21:11;3.80;94.70
16116;DHT22;8162;47.104;15.432;2022-11-11T01:23:39;3.70;94.70
16116;DHT22;8162;47.104;15.432;2022-11-11T01:26:15;3.70;94.70
16116;DHT22;8162;47.104;15.432;2022-11-11T01:28:41;3.80;94.70
16116;DHT22;8162;47.104;15.432;2022-11-11T01:31:10;3.80;94.70
16116;DHT22;8162;47.104;15.432;2022-11-11T01:33:36;3.70;94.70
16116;DHT22;8162;47.104;15.432;2022-11-11T01:36:23;3.70;94.70
16116;DHT22;8162;47.104;15.432;2022-11-11T01:38:51;3.70;94.70
16116;DHT22;8162;47.104;15.432;2022-11-11T01:41:20;3.70;94.60
16116;DHT22;8162;47.104;15.432;2022-11-11T01:57:27;3.40;94.50
16116;DHT22;8162;47.104;15.432;2022-11-11T02:00:01;3.40;94.50
16116;DHT22;8162;47.104;15.432;2022-11-11T02:02:38;3.40;94.60
16116;DHT22;8162;47.104;15.432;2022-11-11T02:05:06;3.40;94.60
16116;DHT22;8162;47.104;15.432;2022-11-11T02:07:52;3.30;94.50
16116;DHT22;8162;47.104;15.432;2022-11-11T02:10:21;3.30;94.60
16116;DHT22;8162;47.104;15.432;2022-11-11T02:12:47;3.30;94.60
16116;DHT22;8162;47.104;15.432;2022-11-11T02:15:31;3.30;94.60
16116;DHT22;8162;47.104;15.432;2022-11-11T02:17:57;3.30;94.60
16116;DHT22;8162;47.104;15.432;2022-11-11T02:20:26;3.30;94.60
16116;DHT22;8162;47.104;15.432;2022-11-11T02:25:42;3.30;94.60
16116;DHT22;8162;47.104;15.432;2022-11-11T02:28:09;3.20;94.60
16116;DHT22;8162;47.104;15.432;2022-11-11T02:30:36;3.20;94.60
16116;DHT22;8162;47.104;15.432;2022-11-11T02:33:01;3.20;94.60
16116;DHT22;8162;47.104;15.432;2022-11-11T02:35:33;3.10;94.60
16116;DHT22;8162;47.104;15.432;2022-11-11T02:38:00;3.20;94.60
16116;DHT22;8162;47.104;15.432;2022-11-11T02:40:43;3.10;94.60
16116;DHT22;8162;47.104;15.432;2022-11-11T02:43:29;3.10;94.60
16116;DHT22;8162;47.104;15.432;2022-11-11T02:45:55;3.10;94.60
16116;DHT22;8162;47.104;15.432;2022-11-11T02:48:21;3.10;94.60
16116;DHT22;8162;47.104;15.432;2022-11-11T02:50:48;3.10;94.60
16116;DHT22;8162;47.104;15.432;2022-11-11T02:53:13;3.10;94.60
16116;DHT22;8162;47.104;15.432;2022-11-11T02:55:39;3.10;94.60
16116;DHT22;8162;47.104;15.432;2022-11-11T02:58:05;3.00;94.60
16116;DHT22;8162;47.104;15.432;2022-11-11T03:00:30;3.00;94.60
16116;DHT22;8162;47.104;15.432;2022-11-11T03:02:56;3.00;94.60
16116;DHT22;8162;47.104;15.432;2022-11-11T03:05:22;3.00;94.60
16116;DHT22;8162;47.104;15.432;2022-11-11T03:07:48;3.00;94.60
16116;DHT22;8162;47.104;15.432;2022-11-11T03:10:13;3.00;94.60
16116;DHT22;8162;47.104;15.432;2022-11-11T03:12:39;3.00;94.60
16116;DHT22;8162;47.104;15.432;2022-11-11T03:15:05;3.00;94.60
16116;DHT22;8162;47.104;15.432;2022-11-11T03:17:31;3.00;94.60
16116;DHT22;8162;47.104;15.432;2022-11-11T03:20:13;3.00;94.70
16116;DHT22;8162;47.104;15.432;2022-11-11T03:23:05;3.00;94.70
16116;DHT22;8162;47.104;15.432;2022-11-11T03:25:31;3.00;94.70
16116;DHT22;8162;47.104;15.432;2022-11-11T03:28:14;3.00;94.70
16116;DHT22;8162;47.104;15.432;2022-11-11T03:30:41;3.00;94.70
16116;DHT22;8162;47.104;15.432;2022-11-11T03:33:08;3.00;94.70
16116;DHT22;8162;47.104;15.432;2022-11-11T03:35:34;3.00;94.70
16116;DHT22;8162;47.104;15.432;2022-11-11T03:38:01;3.00;94.70
16116;DHT22;8162;47.104;15.432;2022-11-11T03:40:46;3.00;94.70
16116;DHT22;8162;47.104;15.432;2022-11-11T03:43:13;3.10;94.70
16116;DHT22;8162;47.104;15.432;2022-11-11T03:45:40;3.10;94.70
16116;DHT22;8162;47.104;15.432;2022-11-11T03:48:06;3.10;94.70
16116;DHT22;8162;47.104;15.432;2022-11-11T03:50:32;3.10;94.70
16116;DHT22;8162;47.104;15.432;2022-11-11T03:52:57;3.10;94.70
16116;DHT22;8162;47.104;15.432;2022-11-11T03:55:23;3.10;94.70
16116;DHT22;8162;47.104;15.432;2022-11-11T03:57:49;3.10;94.70
16116;DHT22;8162;47.104;15.432;2022-11-11T04:00:22;3.10;94.70
16116;DHT22;8162;47.104;15.432;2022-11-11T04:02:49;3.10;94.70
16116;DHT22;8162;47.104;15.432;2022-11-11T04:05:33;3.10;94.70
16116;DHT22;8162;47.104;15.432;2022-11-11T04:08:18;3.00;94.70
16116;DHT22;8162;47.104;15.432;2022-11-11T04:11:13;3.00;94.70
16116;DHT22;8162;47.104;15.432;2022-11-11T04:13:42;3.10;94.70
16116;DHT22;8162;47.104;15.432;2022-11-11T04:16:29;3.00;94.60
16116;DHT22;8162;47.104;15.432;2022-11-11T04:18:54;3.00;94.70
16116;DHT22;8162;47.104;15.432;2022-11-11T04:21:38;3.00;94.70
16116;DHT22;8162;47.104;15.432;2022-11-11T04:24:15;3.10;94.70
16116;DHT22;8162;47.104;15.432;2022-11-11T04:27:02;3.00;94.70
16116;DHT22;8162;47.104;15.432;2022-11-11T04:29:29;3.00;94.70
16116;DHT22;8162;47.104;15.432;2022-11-11T04:32:04;3.00;94.70
16116;DHT22;8162;47.104;15.432;2022-11-11T04:34:50;3.00;94.70
16116;DHT22;8162;47.104;15.432;2022-11-11T04:37:18;3.00;94.70
16116;DHT22;8162;47.104;15.432;2022-11-11T04:39:43;3.00;94.70
16116;DHT22;8162;47.104;15.432;2022-11-11T04:42:29;3.00;94.70
16116;DHT22;8162;47.104;15.432;2022-11-11T04:44:55;3.00;94.70
16116;DHT22;8162;47.104;15.432;2022-11-11T04:48:05;3.00;94.70
16116;DHT22;8162;47.104;15.432;2022-11-11T04:50:36;2.90;94.70
16116;DHT22;8162;47.104;15.432;2022-11-11T04:53:04;2.90;94.60
16116;DHT22;8162;47.104;15.432;2022-11-11T04:55:30;2.90;94.60
16116;DHT22;8162;47.104;15.432;2022-11-11T04:58:18;2.90;94.70
16116;DHT22;8162;47.104;15.432;2022-11-11T05:00:43;2.80;94.60
16116;DHT22;8162;47.104;15.432;2022-11-11T05:03:11;2.80;94.60
16116;DHT22;8162;47.104;15.432;2022-11-11T05:05:50;2.80;94.70
16116;DHT22;8162;47.104;15.432;2022-11-11T05:08:37;2.80;94.70
16116;DHT22;8162;47.104;15.432;2022-11-11T05:11:26;2.90;94.70
16116;DHT22;8162;47.104;15.432;2022-11-11T05:13:53;2.80;94.70
16116;DHT22;8162;47.104;15.432;2022-11-11T05:16:46;2.90;94.70
16116;DHT22;8162;47.104;15.432;2022-11-11T05:19:31;2.90;94.80
16116;DHT22;8162;47.104;15.432;2022-11-11T05:24:46;3.00;94.80
16116;DHT22;8162;47.104;15.432;2022-11-11T05:27:30;3.10;94.90
16116;DHT22;8162;47.104;15.432;2022-11-11T05:29:56;3.10;94.90
16116;DHT22;8162;47.104;15.432;2022-11-11T05:32:22;3.10;94.90
16116;DHT22;8162;47.104;15.432;2022-11-11T05:34:48;3.10;94.80
16116;DHT22;8162;47.104;15.432;2022-11-11T05:37:15;3.20;94.80
16116;DHT22;8162;47.104;15.432;2022-11-11T05:39:41;3.20;94.80
16116;DHT22;8162;47.104;15.432;2022-11-11T05:42:07;3.20;94.80
16116;DHT22;8162;47.104;15.432;2022-11-11T05:44:33;3.30;94.90
16116;DHT22;8162;47.104;15.432;2022-11-11T05:46:59;3.30;94.90
16116;DHT22;8162;47.104;15.432;2022-11-11T05:49:24;3.30;94.90
16116;DHT22;8162;47.104;15.432;2022-11-11T05:51:50;3.30;94.90
16116;DHT22;8162;47.104;15.432;2022-11-11T05:54:17;3.40;94.90
16116;DHT22;8162;47.104;15.432;2022-11-11T05:56:43;3.40;94.90
16116;DHT22;8162;47.104;15.432;2022-11-11T05:59:09;3.40;94.80
16116;DHT22;8162;47.104;15.432;2022-11-11T06:01:35;3.40;94.80
16116;DHT22;8162;47.104;15.432;2022-11-11T06:04:01;3.40;94.80
16116;DHT22;8162;47.104;15.432;2022-11-11T06:06:27;3.40;94.80
16116;DHT22;8162;47.104;15.432;2022-11-11T06:08:52;3.40;94.80
16116;DHT22;8162;47.104;15.432;2022-11-11T06:11:18;3.40;94.80
16116;DHT22;8162;47.104;15.432;2022-11-11T06:13:44;3.40;94.80
16116;DHT22;8162;47.104;15.432;2022-11-11T06:16:10;3.40;94.80
16116;DHT22;8162;47.104;15.432;2022-11-11T06:18:35;3.50;94.90
16116;DHT22;8162;47.104;15.432;2022-11-11T06:21:01;3.50;94.90
16116;DHT22;8162;47.104;15.432;2022-11-11T06:23:28;3.60;94.90
16116;DHT22;8162;47.104;15.432;2022-11-11T06:25:54;3.60;94.90
16116;DHT22;8162;47.104;15.432;2022-11-11T06:28:48;3.60;95.00
16116;DHT22;8162;47.104;15.432;2022-11-11T06:31:20;3.60;95.00
16116;DHT22;8162;47.104;15.432;2022-11-11T06:33:46;3.70;95.00
16116;DHT22;8162;47.104;15.432;2022-11-11T06:36:13;3.80;95.10
16116;DHT22;8162;47.104;15.432;2022-11-11T06:38:40;3.80;95.10
16116;DHT22;8162;47.104;15.432;2022-11-11T06:41:06;3.80;95.10
16116;DHT22;8162;47.104;15.432;2022-11-11T06:43:32;3.90;95.10
16116;DHT22;8162;47.104;15.432;2022-11-11T06:45:58;3.90;95.10
16116;DHT22;8162;47.104;15.432;2022-11-11T06:48:25;4.00;95.20
16116;DHT22;8162;47.104;15.432;2022-11-11T06:50:52;4.10;95.20
16116;DHT22;8162;47.104;15.432;2022-11-11T06:53:19;4.10;95.30
16116;DHT22;8162;47.104;15.432;2022-11-11T06:55:45;4.20;95.30
16116;DHT22;8162;47.104;15.432;2022-11-11T06:58:18;4.30;95.30
16116;DHT22;8162;47.104;15.432;2022-11-11T07:00:46;4.30;95.30
16116;DHT22;8162;47.104;15.432;2022-11-11T07:03:15;4.30;95.30
16116;DHT22;8162;47.104;15.432;2022-11-11T07:05:41;4.30;95.30
16116;DHT22;8162;47.104;15.432;2022-11-11T07:08:10;4.40;95.30
16116;DHT22;8162;47.104;15.432;2022-11-11T07:10:37;4.50;95.30
16116;DHT22;8162;47.104;15.432;2022-11-11T07:13:05;4.50;95.30
16116;DHT22;8162;47.104;15.432;2022-11-11T07:15:31;4.50;95.20
16116;DHT22;8162;47.104;15.432;2022-11-11T07:17:57;4.50;95.20
16116;DHT22;8162;47.104;15.432;2022-11-11T07:20:22;4.50;95.20
16116;DHT22;8162;47.104;15.432;2022-11-11T07:22:48;4.50;95.10
16116;DHT22;8162;47.104;15.432;2022-11-11T07:25:14;4.60;95.10
16116;DHT22;8162;47.104;15.432;2022-11-11T07:27:41;4.60;95.10
16116;DHT22;8162;47.104;15.432;2022-11-11T07:30:08;4.60;95.10
16116;DHT22;8162;47.104;15.432;2022-11-11T07:32:35;4.60;95.20
16116;DHT22;8162;47.104;15.432;2022-11-11T07:35:01;4.60;95.20
16116;DHT22;8162;47.104;15.432;2022-11-11T07:37:26;4.60;95.20
16116;DHT22;8162;47.104;15.432;2022-11-11T07:39:52;4.70;95.20
16116;DHT22;8162;47.104;15.432;2022-11-11T07:42:19;4.70;95.20
16116;DHT22;8162;47.104;15.432;2022-11-11T07:44:45;4.80;95.20
16116;DHT22;8162;47.104;15.432;2022-11-11T07:47:10;4.80;95.30
16116;DHT22;8162;47.104;15.432;2022-11-11T07:49:36;4.80;95.20
16116;DHT22;8162;47.104;15.432;2022-11-11T07:52:02;4.80;95.20
16116;DHT22;8162;47.104;15.432;2022-11-11T07:54:28;4.80;95.30
16116;DHT22;8162;47.104;15.432;2022-11-11T07:56:53;4.90;95.30
16116;DHT22;8162;47.104;15.432;2022-11-11T07:59:19;4.90;95.30
16116;DHT22;8162;47.104;15.432;2022-11-11T08:01:44;4.90;95.30
16116;DHT22;8162;47.104;15.432;2022-11-11T08:04:10;5.00;95.30
16116;DHT22;8162;47.104;15.432;2022-11-11T08:06:36;5.00;95.30
16116;DHT22;8162;47.104;15.432;2022-11-11T08:09:01;5.10;95.40
16116;DHT22;8162;47.104;15.432;2022-11-11T08:11:27;5.10;95.40
16116;DHT22;8162;47.104;15.432;2022-11-11T08:14:12;5.20;95.40
16116;DHT22;8162;47.104;15.432;2022-11-11T08:16:37;5.20;95.40
16116;DHT22;8162;47.104;15.432;2022-11-11T08:19:03;5.30;95.50
16116;DHT22;8162;47.104;15.432;2022-11-11T08:21:29;5.40;95.50
16116;DHT22;8162;47.104;15.432;2022-11-11T08:23:54;5.50;95.50
16116;DHT22;8162;47.104;15.432;2022-11-11T08:26:21;5.60;95.60
16116;DHT22;8162;47.104;15.432;2022-11-11T08:28:50;5.60;95.60
16116;DHT22;8162;47.104;15.432;2022-11-11T08:31:15;5.80;95.70
16116;DHT22;8162;47.104;15.432;2022-11-11T08:33:41;5.80;95.70
16116;DHT22;8162;47.104;15.432;2022-11-11T08:36:07;6.00;95.80
16116;DHT22;8162;47.104;15.432;2022-11-11T08:38:34;6.10;95.80
16116;DHT22;8162;47.104;15.432;2022-11-11T08:41:01;6.20;95.90
16116;DHT22;8162;47.104;15.432;2022-11-11T08:43:27;6.30;95.90
16116;DHT22;8162;47.104;15.432;2022-11-11T08:45:57;6.50;96.00
16116;DHT22;8162;47.104;15.432;2022-11-11T08:48:23;6.70;96.00
16116;DHT22;8162;47.104;15.432;2022-11-11T08:50:51;6.80;96.00
16116;DHT22;8162;47.104;15.432;2022-11-11T08:53:17;6.90;95.90
16116;DHT22;8162;47.104;15.432;2022-11-11T08:55:42;7.00;95.90
16116;DHT22;8162;47.104;15.432;2022-11-11T08:58:09;7.20;96.00
16116;DHT22;8162;47.104;15.432;2022-11-11T09:00:35;7.30;96.00
16116;DHT22;8162;47.104;15.432;2022-11-11T09:03:05;7.40;96.00
16116;DHT22;8162;47.104;15.432;2022-11-11T09:05:32;7.50;96.00
16116;DHT22;8162;47.104;15.432;2022-11-11T09:08:01;7.60;96.00
16116;DHT22;8162;47.104;15.432;2022-11-11T09:10:27;7.70;96.00
16116;DHT22;8162;47.104;15.432;2022-11-11T09:12:57;7.80;95.90
16116;DHT22;8162;47.104;15.432;2022-11-11T09:15:23;7.90;95.70
16116;DHT22;8162;47.104;15.432;2022-11-11T09:17:49;8.00;95.80
16116;DHT22;8162;47.104;15.432;2022-11-11T09:20:14;8.10;95.80
16116;DHT22;8162;47.104;15.432;2022-11-11T09:22:47;8.30;95.90
16116;DHT22;8162;47.104;15.432;2022-11-11T09:25:14;8.30;95.80
16116;DHT22;8162;47.104;15.432;2022-11-11T09:27:40;8.30;95.70
16116;DHT22;8162;47.104;15.432;2022-11-11T09:30:06;8.50;95.60
16116;DHT22;8162;47.104;15.432;2022-11-11T09:32:32;8.60;95.60
16116;DHT22;8162;47.104;15.432;2022-11-11T09:34:58;8.70;95.70
16116;DHT22;8162;47.104;15.432;2022-11-11T09:37:25;8.80;95.70
16116;DHT22;8162;47.104;15.432;2022-11-11T09:39:51;8.90;95.70
16116;DHT22;8162;47.104;15.432;2022-11-11T09:42:47;8.90;95.80
16116;DHT22;8162;47.104;15.432;2022-11-11T09:51:31;9.30;95.80
16116;DHT22;8162;47.104;15.432;2022-11-11T09:54:05;9.20;95.20
16116;DHT22;8162;47.104;15.432;2022-11-11T09:56:32;9.30;95.20
16116;DHT22;8162;47.104;15.432;2022-11-11T09:59:06;9.30;95.30
16116;DHT22;8162;47.104;15.432;2022-11-11T10:01:47;9.40;95.40
16116;DHT22;8162;47.104;15.432;2022-11-11T10:04:51;9.50;95.40
16116;DHT22;8162;47.104;15.432;2022-11-11T10:07:35;9.40;94.80
16116;DHT22;8162;47.104;15.432;2022-11-11T10:10:13;9.60;94.90
16116;DHT22;8162;47.104;15.432;2022-11-11T10:12:56;9.70;95.20
16116;DHT22;8162;47.104;15.432;2022-11-11T10:15:27;9.80;95.30
16116;DHT22;8162;47.104;15.432;2022-11-11T10:20:41;10.00;95.20
16116;DHT22;8162;47.104;15.432;2022-11-11T10:23:16;10.10;95.20
16116;DHT22;8162;47.104;15.432;2022-11-11T10:28:42;10.20;94.50
16116;DHT22;8162;47.104;15.432;2022-11-11T10:31:17;10.10;92.70
16116;DHT22;8162;47.104;15.432;2022-11-11T10:36:29;10.00;89.00
16116;DHT22;8162;47.104;15.432;2022-11-11T10:41:29;10.10;88.40
16116;DHT22;8162;47.104;15.432;2022-11-11T10:43:56;10.00;87.60
16116;DHT22;8162;47.104;15.432;2022-11-11T10:46:32;10.10;89.80
16116;DHT22;8162;47.104;15.432;2022-11-11T10:49:18;10.10;87.40
16116;DHT22;8162;47.104;15.432;2022-11-11T10:52:40;10.20;85.80
16116;DHT22;8162;47.104;15.432;2022-11-11T10:54:47;10.20;87.40
16116;DHT22;8162;47.104;15.432;2022-11-11T10:57:21;10.20;85.20
16116;DHT22;8162;47.104;15.432;2022-11-11T10:59:55;10.20;85.60
16116;DHT22;8162;47.104;15.432;2022-11-11T11:05:25;10.20;83.80
16116;DHT22;8162;47.104;15.432;2022-11-11T11:07:59;10.30;86.50
16116;DHT22;8162;47.104;15.432;2022-11-11T11:10:38;10.30;83.30
16116;DHT22;8162;47.104;15.432;2022-11-11T11:13:15;10.30;83.40
16116;DHT22;8162;47.104;15.432;2022-11-11T11:15:44;10.40;85.70
16116;DHT22;8162;47.104;15.432;2022-11-11T11:18:17;10.50;87.30
16116;DHT22;8162;47.104;15.432;2022-11-11T11:25:59;10.60;87.80
16116;DHT22;8162;47.104;15.432;2022-11-11T11:28:27;10.60;88.20
16116;DHT22;8162;47.104;15.432;2022-11-11T11:31:04;10.60;86.70
16116;DHT22;8162;47.104;15.432;2022-11-11T11:33:52;10.60;86.90
16116;DHT22;8162;47.104;15.432;2022-11-11T11:36:19;10.50;82.50
16116;DHT22;8162;47.104;15.432;2022-11-11T11:38:48;10.50;83.00
16116;DHT22;8162;47.104;15.432;2022-11-11T11:41:16;10.60;86.30
16116;DHT22;8162;47.104;15.432;2022-11-11T11:43:43;10.70;87.80
16116;DHT22;8162;47.104;15.432;2022-11-11T11:46:37;10.70;86.80
16116;DHT22;8162;47.104;15.432;2022-11-11T11:49:25;10.70;85.40
16116;DHT22;8162;47.104;15.432;2022-11-11T11:52:21;10.80;84.50
16116;DHT22;8162;47.104;15.432;2022-11-11T11:57:53;10.70;84.40
16116;DHT22;8162;47.104;15.432;2022-11-11T12:00:28;10.70;85.10
16116;DHT22;8162;47.104;15.432;2022-11-11T12:08:56;11.00;86.80
16116;DHT22;8162;47.104;15.432;2022-11-11T12:11:51;11.00;80.90
16116;DHT22;8162;47.104;15.432;2022-11-11T12:31:21;12.00;83.70
16116;DHT22;8162;47.104;15.432;2022-11-11T12:34:17;12.20;83.90
16116;DHT22;8162;47.104;15.432;2022-11-11T12:45:23;12.40;80.20
16116;DHT22;8162;47.104;15.432;2022-11-11T12:50:53;12.60;78.80
16116;DHT22;8162;47.104;15.432;2022-11-11T13:04:26;12.30;72.90
16116;DHT22;8162;47.104;15.432;2022-11-11T13:10:12;12.30;69.50
16116;DHT22;8162;47.104;15.432;2022-11-11T13:12:42;12.30;72.90
16116;DHT22;8162;47.104;15.432;2022-11-11T13:15:21;12.30;67.50
16116;DHT22;8162;47.104;15.432;2022-11-11T13:19:54;12.60;72.30
16116;DHT22;8162;47.104;15.432;2022-11-11T13:22:25;12.80;72.10
16116;DHT22;8162;47.104;15.432;2022-11-11T13:24:53;13.00;69.90
16116;DHT22;8162;47.104;15.432;2022-11-11T13:32:43;13.30;68.40
16116;DHT22;8162;47.104;15.432;2022-11-11T13:37:54;13.30;70.20
16116;DHT22;8162;47.104;15.432;2022-11-11T13:40:43;13.30;68.70
16116;DHT22;8162;47.104;15.432;2022-11-11T13:45:55;13.30;65.80
16116;DHT22;8162;47.104;15.432;2022-11-11T13:48:30;13.20;63.70
16116;DHT22;8162;47.104;15.432;2022-11-11T13:51:41;13.10;63.20
16116;DHT22;8162;47.104;15.432;2022-11-11T13:56:50;13.10;68.70
16116;DHT22;8162;47.104;15.432;2022-11-11T13:59:26;13.10;70.30
16116;DHT22;8162;47.104;15.432;2022-11-11T14:12:53;12.90;73.60
16116;DHT22;8162;47.104;15.432;2022-11-11T14:18:08;12.80;74.50
16116;DHT22;8162;47.104;15.432;2022-11-11T14:28:55;12.40;74.60
16116;DHT22;8162;47.104;15.432;2022-11-11T14:34:00;12.20;75.50
16116;DHT22;8162;47.104;15.432;2022-11-11T14:36:47;12.10;75.60
16116;DHT22;8162;47.104;15.432;2022-11-11T14:39:38;12.00;76.00
16116;DHT22;8162;47.104;15.432;2022-11-11T14:45:01;11.80;76.90
16116;DHT22;8162;47.104;15.432;2022-11-11T14:47:36;11.70;77.10
16116;DHT22;8162;47.104;15.432;2022-11-11T14:50:02;11.60;77.20
16116;DHT22;8162;47.104;15.432;2022-11-11T14:52:41;11.60;77.70
16116;DHT22;8162;47.104;15.432;2022-11-11T14:55:25;11.50;77.70
16116;DHT22;8162;47.104;15.432;2022-11-11T15:03:14;11.30;79.00
16116;DHT22;8162;47.104;15.432;2022-11-11T15:05:53;11.30;79.40
16116;DHT22;8162;47.104;15.432;2022-11-11T15:08:23;11.20;79.70
16116;DHT22;8162;47.104;15.432;2022-11-11T15:16:06;10.90;80.10
16116;DHT22;8162;47.104;15.432;2022-11-11T15:19:01;10.80;80.30
16116;DHT22;8162;47.104;15.432;2022-11-11T15:21:33;10.60;80.60
16116;DHT22;8162;47.104;15.432;2022-11-11T15:24:24;10.50;80.90
16116;DHT22;8162;47.104;15.432;2022-11-11T15:30:09;10.30;81.30
16116;DHT22;8162;47.104;15.432;2022-11-11T15:37:59;10.00;82.20
16116;DHT22;8162;47.104;15.432;2022-11-11T15:40:52;9.80;82.40
16116;DHT22;8162;47.104;15.432;2022-11-11T15:43:30;9.80;82.60
16116;DHT22;8162;47.104;15.432;2022-11-11T15:46:01;9.70;83.00
16116;DHT22;8162;47.104;15.432;2022-11-11T15:48:38;9.60;83.10
16116;DHT22;8162;47.104;15.432;2022-11-11T15:53:48;9.30;83.60
16116;DHT22;8162;47.104;15.432;2022-11-11T15:56:31;9.30;83.80
16116;DHT22;8162;47.104;15.432;2022-11-11T15:58:57;9.20;83.90
16116;DHT22;8162;47.104;15.432;2022-11-11T16:01:41;9.10;84.00
16116;DHT22;8162;47.104;15.432;2022-11-11T16:04:08;9.00;84.20
16116;DHT22;8162;47.104;15.432;2022-11-11T16:06:35;9.00;84.20
16116;DHT22;8162;47.104;15.432;2022-11-11T16:09:02;8.80;84.30
16116;DHT22;8162;47.104;15.432;2022-11-11T16:11:29;8.80;84.40
16116;DHT22;8162;47.104;15.432;2022-11-11T16:14:01;8.80;84.50
16116;DHT22;8162;47.104;15.432;2022-11-11T16:16:31;8.70;84.60
16116;DHT22;8162;47.104;15.432;2022-11-11T16:19:39;8.50;84.70
16116;DHT22;8162;47.104;15.432;2022-11-11T16:21:58;8.40;84.80
16116;DHT22;8162;47.104;15.432;2022-11-11T16:24:31;8.30;85.00
16116;DHT22;8162;47.104;15.432;2022-11-11T16:26:57;8.20;85.20
16116;DHT22;8162;47.104;15.432;2022-11-11T16:29:33;8.20;85.40
16116;DHT22;8162;47.104;15.432;2022-11-11T16:32:00;8.10;85.50
16116;DHT22;8162;47.104;15.432;2022-11-11T16:37:07;7.90;85.90
16116;DHT22;8162;47.104;15.432;2022-11-11T16:39:34;7.80;86.30
16116;DHT22;8162;47.104;15.432;2022-11-11T16:42:01;7.80;86.50
16116;DHT22;8162;47.104;15.432;2022-11-11T16:44:47;7.70;86.50
16116;DHT22;8162;47.104;15.432;2022-11-11T16:55:32;7.60;86.90
16116;DHT22;8162;47.104;15.432;2022-11-11T16:58:09;7.50;86.90
16116;DHT22;8162;47.104;15.432;2022-11-11T17:00:36;7.40;86.90
16116;DHT22;8162;47.104;15.432;2022-11-11T17:08:45;7.30;86.90
16116;DHT22;8162;47.104;15.432;2022-11-11T17:14:05;7.20;86.80
16116;DHT22;8162;47.104;15.432;2022-11-11T17:16:31;7.20;86.80
16116;DHT22;8162;47.104;15.432;2022-11-11T17:19:01;7.10;86.80
16116;DHT22;8162;47.104;15.432;2022-11-11T17:21:27;7.10;86.80
16116;DHT22;8162;47.104;15.432;2022-11-11T17:23:53;7.00;86.80
16116;DHT22;8162;47.104;15.432;2022-11-11T17:26:19;7.00;86.80
16116;DHT22;8162;47.104;15.432;2022-11-11T17:28:45;6.90;86.70
16116;DHT22;8162;47.104;15.432;2022-11-11T17:31:12;6.80;86.70
16116;DHT22;8162;47.104;15.432;2022-11-11T17:33:38;6.80;86.70
16116;DHT22;8162;47.104;15.432;2022-11-11T17:36:04;6.80;86.80
16116;DHT22;8162;47.104;15.432;2022-11-11T17:38:37;6.80;86.80
16116;DHT22;8162;47.104;15.432;2022-11-11T17:41:03;6.70;86.70
16116;DHT22;8162;47.104;15.432;2022-11-11T17:43:29;6.70;86.80
16116;DHT22;8162;47.104;15.432;2022-11-11T17:45:55;6.60;86.80
16116;DHT22;8162;47.104;15.432;2022-11-11T17:48:21;6.60;86.80
16116;DHT22;8162;47.104;15.432;2022-11-11T17:50:47;6.50;86.90
16116;DHT22;8162;47.104;15.432;2022-11-11T17:53:13;6.50;87.00
16116;DHT22;8162;47.104;15.432;2022-11-11T17:55:40;6.40;87.00
16116;DHT22;8162;47.104;15.432;2022-11-11T17:58:06;6.40;87.00
16116;DHT22;8162;47.104;15.432;2022-11-11T18:00:32;6.30;87.10
16116;DHT22;8162;47.104;15.432;2022-11-11T18:02:58;6.30;87.20
16116;DHT22;8162;47.104;15.432;2022-11-11T18:05:23;6.30;87.20
16116;DHT22;8162;47.104;15.432;2022-11-11T18:07:51;6.20;87.30
16116;DHT22;8162;47.104;15.432;2022-11-11T18:10:17;6.20;87.30
16116;DHT22;8162;47.104;15.432;2022-11-11T18:12:42;6.10;87.30
16116;DHT22;8162;47.104;15.432;2022-11-11T18:15:08;6.10;87.30
16116;DHT22;8162;47.104;15.432;2022-11-11T18:17:34;6.10;87.30
16116;DHT22;8162;47.104;15.432;2022-11-11T18:20:00;6.00;87.40
16116;DHT22;8162;47.104;15.432;2022-11-11T18:22:26;6.00;87.40
16116;DHT22;8162;47.104;15.432;2022-11-11T18:24:53;5.90;87.50
16116;DHT22;8162;47.104;15.432;2022-11-11T18:27:19;5.90;87.50
16116;DHT22;8162;47.104;15.432;2022-11-11T18:29:45;5.90;87.50
16116;DHT22;8162;47.104;15.432;2022-11-11T18:32:11;5.90;87.50
16116;DHT22;8162;47.104;15.432;2022-11-11T18:34:36;5.80;87.50
16116;DHT22;8162;47.104;15.432;2022-11-11T18:37:05;5.80;87.50
16116;DHT22;8162;47.104;15.432;2022-11-11T18:39:31;5.80;87.50
16116;DHT22;8162;47.104;15.432;2022-11-11T18:41:57;5.80;87.60
16116;DHT22;8162;47.104;15.432;2022-11-11T18:44:23;5.70;87.60
16116;DHT22;8162;47.104;15.432;2022-11-11T18:46:49;5.70;87.60
16116;DHT22;8162;47.104;15.432;2022-11-11T18:49:15;5.70;87.60
16116;DHT22;8162;47.104;15.432;2022-11-11T18:51:41;5.70;87.60
16116;DHT22;8162;47.104;15.432;2022-11-11T18:54:07;5.60;87.60
16116;DHT22;8162;47.104;15.432;2022-11-11T18:56:36;5.60;87.60
16116;DHT22;8162;47.104;15.432;2022-11-11T18:59:04;5.50;87.70
16116;DHT22;8162;47.104;15.432;2022-11-11T19:01:32;5.50;87.80
16116;DHT22;8162;47.104;15.432;2022-11-11T19:03:59;5.50;87.90
16116;DHT22;8162;47.104;15.432;2022-11-11T19:06:27;5.50;88.00
16116;DHT22;8162;47.104;15.432;2022-11-11T19:09:00;5.50;88.10